sensor_id;sensor_type;location;lat;lon;timestamp;pressure;altitude;pressure_sealevel;temperature;humidity
9335;BME280;4706;41.844;26.082;2023-05-24T00:00:28;100475.94;;;18.20;83.30
9335;BME280;4706;41.844;26.082;2023-05-24T00:02:54;100465.13;;;18.03;84.05
9335;BME280;4706;41.844;26.082;2023-05-24T00:05:22;100460.63;;;17.99;83.94
9335;BME280;4706;41.844;26.082;2023-05-24T00:07:47;100464.84;;;18.08;84.08
9335;BME280;4706;41.844;26.082;2023-05-24T00:10:13;100469.28;;;18.09;84.43
9335;BME280;4706;41.844;26.082;2023-05-24T00:12:39;100463.06;;;18.16;83.82
9335;BME280;4706;41.844;26.082;2023-05-24T00:15:05;100465.16;;;18.19;84.49
9335;BME280;4706;41.844;26.082;2023-05-24T00:17:31;100460.09;;;18.09;84.74
9335;BME280;4706;41.844;26.082;2023-05-24T00:19:59;100456.16;;;18.10;84.63
9335;BME280;4706;41.844;26.082;2023-05-24T00:22:25;100446.91;;;18.06;84.71
9335;BME280;4706;41.844;26.082;2023-05-24T00:24:50;100455.25;;;18.06;85.32
9335;BME280;4706;41.844;26.082;2023-05-24T00:27:16;100451.56;;;18.02;85.94
9335;BME280;4706;41.844;26.082;2023-05-24T00:29:41;100460.72;;;18.02;86.22
9335;BME280;4706;41.844;26.082;2023-05-24T00:32:07;100460.94;;;18.09;85.37
9335;BME280;4706;41.844;26.082;2023-05-24T00:34:33;100451.00;;;17.96;85.72
9335;BME280;4706;41.844;26.082;2023-05-24T00:36:58;100466.81;;;18.08;85.21
9335;BME280;4706;41.844;26.082;2023-05-24T00:39:25;100465.66;;;18.09;85.72
9335;BME280;4706;41.844;26.082;2023-05-24T00:41:51;100463.34;;;18.11;85.76
9335;BME280;4706;41.844;26.082;2023-05-24T00:44:16;100468.91;;;18.11;86.17
9335;BME280;4706;41.844;26.082;2023-05-24T00:46:43;100464.63;;;18.13;86.56
9335;BME280;4706;41.844;26.082;2023-05-24T00:49:08;100466.31;;;18.18;86.12
9335;BME280;4706;41.844;26.082;2023-05-24T00:51:35;100472.69;;;18.18;86.56
9335;BME280;4706;41.844;26.082;2023-05-24T00:54:01;100470.28;;;18.17;87.05
9335;BME280;4706;41.844;26.082;2023-05-24T00:56:27;100473.28;;;18.24;86.95
9335;BME280;4706;41.844;26.082;2023-05-24T00:58:53;100470.22;;;18.29;86.52
9335;BME280;4706;41.844;26.082;2023-05-24T01:01:20;100465.72;;;18.25;85.94
9335;BME280;4706;41.844;26.082;2023-05-24T01:03:53;100466.53;;;18.25;85.58
9335;BME280;4706;41.844;26.082;2023-05-24T01:06:18;100476.59;;;18.30;85.20
9335;BME280;4706;41.844;26.082;2023-05-24T01:08:58;100479.66;;;18.25;85.29
9335;BME280;4706;41.844;26.082;2023-05-24T01:16:55;100474.09;;;18.12;85.04
9335;BME280;4706;41.844;26.082;2023-05-24T01:20:25;100479.78;;;18.16;85.02
9335;BME280;4706;41.844;26.082;2023-05-24T01:27:35;100462.88;;;18.09;85.27
9335;BME280;4706;41.844;26.082;2023-05-24T01:30:03;100460.72;;;18.02;85.53
9335;BME280;4706;41.844;26.082;2023-05-24T01:32:29;100468.00;;;18.07;85.55
9335;BME280;4706;41.844;26.082;2023-05-24T01:34:54;100471.59;;;18.07;85.33
9335;BME280;4706;41.844;26.082;2023-05-24T01:37:20;100455.50;;;18.01;85.50
9335;BME280;4706;41.844;26.082;2023-05-24T01:39:46;100465.38;;;17.98;85.57
9335;BME280;4706;41.844;26.082;2023-05-24T01:42:37;100474.16;;;18.00;85.64
9335;BME280;4706;41.844;26.082;2023-05-24T01:50:47;100466.50;;;17.97;86.05
9335;BME280;4706;41.844;26.082;2023-05-24T01:53:17;100458.88;;;17.94;86.28
9335;BME280;4706;41.844;26.082;2023-05-24T01:55:47;100470.47;;;17.96;86.15
9335;BME280;4706;41.844;26.082;2023-05-24T01:58:15;100470.00;;;17.94;86.48
9335;BME280;4706;41.844;26.082;2023-05-24T02:00:42;100460.31;;;17.88;86.52
9335;BME280;4706;41.844;26.082;2023-05-24T02:03:08;100466.31;;;17.90;86.36
9335;BME280;4706;41.844;26.082;2023-05-24T02:05:34;100474.91;;;17.85;86.34
9335;BME280;4706;41.844;26.082;2023-05-24T02:08:00;100473.53;;;17.79;86.23
9335;BME280;4706;41.844;26.082;2023-05-24T02:10:25;100472.28;;;17.76;86.41
9335;BME280;4706;41.844;26.082;2023-05-24T02:12:51;100477.84;;;17.76;86.71
9335;BME280;4706;41.844;26.082;2023-05-24T02:15:16;100474.25;;;17.76;86.45
9335;BME280;4706;41.844;26.082;2023-05-24T02:17:42;100482.47;;;17.72;86.53
9335;BME280;4706;41.844;26.082;2023-05-24T02:20:08;100474.91;;;17.72;86.14
9335;BME280;4706;41.844;26.082;2023-05-24T02:22:33;100476.41;;;17.70;86.02
9335;BME280;4706;41.844;26.082;2023-05-24T02:24:59;100479.78;;;17.63;86.34
9335;BME280;4706;41.844;26.082;2023-05-24T02:27:25;100477.63;;;17.57;86.21
9335;BME280;4706;41.844;26.082;2023-05-24T02:29:50;100486.41;;;17.59;86.36
9335;BME280;4706;41.844;26.082;2023-05-24T02:32:17;100482.97;;;17.50;86.78
9335;BME280;4706;41.844;26.082;2023-05-24T02:34:42;100480.06;;;17.46;86.50
9335;BME280;4706;41.844;26.082;2023-05-24T02:37:08;100485.16;;;17.44;86.57
9335;BME280;4706;41.844;26.082;2023-05-24T02:39:40;100479.59;;;17.44;86.76
9335;BME280;4706;41.844;26.082;2023-05-24T02:42:06;100494.41;;;17.48;86.59
9335;BME280;4706;41.844;26.082;2023-05-24T02:44:33;100490.38;;;17.45;86.89
9335;BME280;4706;41.844;26.082;2023-05-24T02:46:58;100483.91;;;17.41;86.66
9335;BME280;4706;41.844;26.082;2023-05-24T02:49:24;100490.38;;;17.45;86.63
9335;BME280;4706;41.844;26.082;2023-05-24T02:51:49;100489.22;;;17.46;86.97
9335;BME280;4706;41.844;26.082;2023-05-24T02:54:15;100490.81;;;17.47;86.39
9335;BME280;4706;41.844;26.082;2023-05-24T02:56:41;100488.03;;;17.47;86.93
9335;BME280;4706;41.844;26.082;2023-05-24T02:59:07;100495.91;;;17.58;86.91
9335;BME280;4706;41.844;26.082;2023-05-24T03:01:32;100492.22;;;17.54;86.86
9335;BME280;4706;41.844;26.082;2023-05-24T03:03:58;100492.22;;;17.54;87.34
9335;BME280;4706;41.844;26.082;2023-05-24T03:06:24;100496.63;;;17.55;87.20
9335;BME280;4706;41.844;26.082;2023-05-24T03:08:49;100503.78;;;17.56;87.66
9335;BME280;4706;41.844;26.082;2023-05-24T03:11:15;100512.50;;;17.54;87.77
9335;BME280;4706;41.844;26.082;2023-05-24T03:13:41;100505.66;;;17.52;88.21
9335;BME280;4706;41.844;26.082;2023-05-24T03:16:06;100513.78;;;17.57;88.25
9335;BME280;4706;41.844;26.082;2023-05-24T03:18:32;100498.13;;;17.52;88.05
9335;BME280;4706;41.844;26.082;2023-05-24T03:20:58;100506.13;;;17.54;88.64
9335;BME280;4706;41.844;26.082;2023-05-24T03:23:23;100515.03;;;17.59;88.74
9335;BME280;4706;41.844;26.082;2023-05-24T03:25:49;100499.16;;;17.60;89.08
9335;BME280;4706;41.844;26.082;2023-05-24T03:28:14;100510.50;;;17.67;89.07
9335;BME280;4706;41.844;26.082;2023-05-24T03:30:40;100509.00;;;17.69;89.31
9335;BME280;4706;41.844;26.082;2023-05-24T03:33:05;100512.25;;;17.71;89.41
9335;BME280;4706;41.844;26.082;2023-05-24T03:35:31;100513.31;;;17.79;89.23
9335;BME280;4706;41.844;26.082;2023-05-24T03:37:56;100513.88;;;17.85;89.54
9335;BME280;4706;41.844;26.082;2023-05-24T03:40:21;100509.56;;;17.87;89.10
9335;BME280;4706;41.844;26.082;2023-05-24T03:42:47;100523.34;;;17.96;88.88
9335;BME280;4706;41.844;26.082;2023-05-24T03:45:12;100520.09;;;17.94;88.29
9335;BME280;4706;41.844;26.082;2023-05-24T03:47:39;100507.72;;;17.91;88.16
9335;BME280;4706;41.844;26.082;2023-05-24T03:50:05;100516.59;;;17.97;88.62
9335;BME280;4706;41.844;26.082;2023-05-24T03:52:30;100516.16;;;17.95;88.95
9335;BME280;4706;41.844;26.082;2023-05-24T03:54:56;100523.09;;;18.01;89.46
9335;BME280;4706;41.844;26.082;2023-05-24T03:57:21;100511.75;;;17.94;89.70
9335;BME280;4706;41.844;26.082;2023-05-24T03:59:47;100523.56;;;18.03;89.90
9335;BME280;4706;41.844;26.082;2023-05-24T04:02:12;100526.06;;;18.20;90.15
9335;BME280;4706;41.844;26.082;2023-05-24T04:04:38;100525.34;;;18.24;89.23
9335;BME280;4706;41.844;26.082;2023-05-24T04:07:04;100538.06;;;18.37;89.07
9335;BME280;4706;41.844;26.082;2023-05-24T04:09:29;100544.16;;;18.42;88.96
9335;BME280;4706;41.844;26.082;2023-05-24T04:11:55;100533.69;;;18.52;88.42
9335;BME280;4706;41.844;26.082;2023-05-24T04:14:20;100532.34;;;18.61;87.71
9335;BME280;4706;41.844;26.082;2023-05-24T04:16:46;100523.28;;;18.64;87.11
9335;BME280;4706;41.844;26.082;2023-05-24T04:19:12;100534.94;;;18.82;87.41
9335;BME280;4706;41.844;26.082;2023-05-24T04:21:38;100534.06;;;18.94;86.83
9335;BME280;4706;41.844;26.082;2023-05-24T04:24:04;100536.31;;;19.04;86.64
9335;BME280;4706;41.844;26.082;2023-05-24T04:26:30;100526.69;;;19.17;85.38
9335;BME280;4706;41.844;26.082;2023-05-24T04:28:58;100526.63;;;19.30;85.10
9335;BME280;4706;41.844;26.082;2023-05-24T04:31:23;100531.00;;;19.47;84.49
9335;BME280;4706;41.844;26.082;2023-05-24T04:33:50;100531.78;;;19.63;83.89
9335;BME280;4706;41.844;26.082;2023-05-24T04:36:16;100521.25;;;19.72;82.65
9335;BME280;4706;41.844;26.082;2023-05-24T04:38:42;100515.84;;;19.79;82.10
9335;BME280;4706;41.844;26.082;2023-05-24T04:41:10;100520.41;;;19.87;81.17
9335;BME280;4706;41.844;26.082;2023-05-24T04:43:36;100525.69;;;19.93;81.39
9335;BME280;4706;41.844;26.082;2023-05-24T04:46:02;100523.69;;;19.93;81.13
9335;BME280;4706;41.844;26.082;2023-05-24T04:48:29;100528.78;;;19.87;81.39
9335;BME280;4706;41.844;26.082;2023-05-24T04:50:55;100520.97;;;19.77;81.51
9335;BME280;4706;41.844;26.082;2023-05-24T04:53:22;100524.41;;;19.71;82.46
9335;BME280;4706;41.844;26.082;2023-05-24T04:55:48;100524.13;;;19.76;82.50
9335;BME280;4706;41.844;26.082;2023-05-24T04:58:15;100525.91;;;19.84;82.48
9335;BME280;4706;41.844;26.082;2023-05-24T05:00:41;100522.25;;;19.99;83.57
9335;BME280;4706;41.844;26.082;2023-05-24T05:03:07;100523.94;;;20.23;82.83
9335;BME280;4706;41.844;26.082;2023-05-24T05:05:33;100521.59;;;20.45;81.90
9335;BME280;4706;41.844;26.082;2023-05-24T05:07:59;100520.50;;;20.69;80.96
9335;BME280;4706;41.844;26.082;2023-05-24T05:10:25;100522.00;;;20.85;79.49
9335;BME280;4706;41.844;26.082;2023-05-24T05:12:50;100529.78;;;20.96;78.84
9335;BME280;4706;41.844;26.082;2023-05-24T05:15:16;100514.34;;;21.05;78.00
9335;BME280;4706;41.844;26.082;2023-05-24T05:17:41;100522.69;;;22.35;80.35
9335;BME280;4706;41.844;26.082;2023-05-24T05:20:07;100530.06;;;22.50;73.01
9335;BME280;4706;41.844;26.082;2023-05-24T05:22:33;100529.28;;;22.49;72.46
9335;BME280;4706;41.844;26.082;2023-05-24T05:24:59;100527.16;;;22.39;72.81
9335;BME280;4706;41.844;26.082;2023-05-24T05:27:25;100519.59;;;22.43;73.20
9335;BME280;4706;41.844;26.082;2023-05-24T05:29:51;100530.53;;;22.55;73.05
9335;BME280;4706;41.844;26.082;2023-05-24T05:32:17;100530.56;;;22.59;72.72
9335;BME280;4706;41.844;26.082;2023-05-24T05:34:42;100535.13;;;22.74;72.35
9335;BME280;4706;41.844;26.082;2023-05-24T05:37:08;100531.16;;;22.79;72.48
9335;BME280;4706;41.844;26.082;2023-05-24T05:39:34;100537.00;;;22.97;72.61
9335;BME280;4706;41.844;26.082;2023-05-24T05:42:00;100536.41;;;23.18;70.97
9335;BME280;4706;41.844;26.082;2023-05-24T05:44:26;100532.81;;;23.21;70.63
9335;BME280;4706;41.844;26.082;2023-05-24T05:46:52;100520.03;;;23.27;70.56
9335;BME280;4706;41.844;26.082;2023-05-24T05:49:17;100523.22;;;23.25;70.65
9335;BME280;4706;41.844;26.082;2023-05-24T05:51:44;100529.19;;;23.20;70.65
9335;BME280;4706;41.844;26.082;2023-05-24T05:54:10;100537.63;;;23.24;70.80
9335;BME280;4706;41.844;26.082;2023-05-24T05:56:40;100535.13;;;23.12;70.82
9335;BME280;4706;41.844;26.082;2023-05-24T05:59:10;100526.22;;;22.99;71.13
9335;BME280;4706;41.844;26.082;2023-05-24T06:01:36;100538.25;;;23.03;71.30
9335;BME280;4706;41.844;26.082;2023-05-24T06:04:02;100538.59;;;22.98;71.57
9335;BME280;4706;41.844;26.082;2023-05-24T06:06:27;100542.97;;;22.92;72.37
9335;BME280;4706;41.844;26.082;2023-05-24T06:08:53;100551.25;;;23.22;72.25
9335;BME280;4706;41.844;26.082;2023-05-24T06:11:18;100545.88;;;23.47;71.04
9335;BME280;4706;41.844;26.082;2023-05-24T06:13:44;100550.88;;;23.75;69.38
9335;BME280;4706;41.844;26.082;2023-05-24T06:16:09;100546.84;;;23.72;70.40
9335;BME280;4706;41.844;26.082;2023-05-24T06:18:35;100556.63;;;23.93;69.70
9335;BME280;4706;41.844;26.082;2023-05-24T06:21:01;100546.63;;;24.03;69.19
9335;BME280;4706;41.844;26.082;2023-05-24T06:23:27;100544.69;;;24.14;68.54
9335;BME280;4706;41.844;26.082;2023-05-24T06:25:52;100553.28;;;24.42;66.75
9335;BME280;4706;41.844;26.082;2023-05-24T06:28:18;100539.22;;;24.42;66.39
9335;BME280;4706;41.844;26.082;2023-05-24T06:30:45;100543.25;;;24.56;66.94
9335;BME280;4706;41.844;26.082;2023-05-24T06:33:11;100532.84;;;24.53;67.09
9335;BME280;4706;41.844;26.082;2023-05-24T06:35:37;100550.56;;;24.78;66.59
9335;BME280;4706;41.844;26.082;2023-05-24T06:38:02;100553.03;;;24.98;65.29
9335;BME280;4706;41.844;26.082;2023-05-24T06:40:28;100535.38;;;25.15;64.82
9335;BME280;4706;41.844;26.082;2023-05-24T06:42:53;100538.59;;;25.38;63.30
9335;BME280;4706;41.844;26.082;2023-05-24T06:45:19;100526.50;;;25.49;61.79
9335;BME280;4706;41.844;26.082;2023-05-24T06:47:45;100546.19;;;25.77;60.30
9335;BME280;4706;41.844;26.082;2023-05-24T06:50:11;100537.31;;;25.97;59.12
9335;BME280;4706;41.844;26.082;2023-05-24T06:52:36;100539.31;;;26.03;57.40
9335;BME280;4706;41.844;26.082;2023-05-24T06:55:02;100519.59;;;26.03;56.86
9335;BME280;4706;41.844;26.082;2023-05-24T06:57:27;100533.56;;;26.32;56.97
9335;BME280;4706;41.844;26.082;2023-05-24T06:59:53;100544.81;;;26.46;57.30
9335;BME280;4706;41.844;26.082;2023-05-24T07:02:18;100532.72;;;26.49;56.93
9335;BME280;4706;41.844;26.082;2023-05-24T07:04:48;100528.19;;;26.66;56.42
9335;BME280;4706;41.844;26.082;2023-05-24T07:07:14;100534.56;;;26.77;55.23
9335;BME280;4706;41.844;26.082;2023-05-24T07:09:39;100526.84;;;26.85;54.85
9335;BME280;4706;41.844;26.082;2023-05-24T07:12:06;100535.75;;;26.80;54.96
9335;BME280;4706;41.844;26.082;2023-05-24T07:14:31;100531.19;;;26.97;55.50
9335;BME280;4706;41.844;26.082;2023-05-24T07:16:57;100529.94;;;27.08;54.17
9335;BME280;4706;41.844;26.082;2023-05-24T07:19:24;100536.22;;;27.30;54.70
9335;BME280;4706;41.844;26.082;2023-05-24T07:21:54;100538.06;;;27.51;52.58
9335;BME280;4706;41.844;26.082;2023-05-24T07:24:20;100526.69;;;27.58;52.49
9335;BME280;4706;41.844;26.082;2023-05-24T07:26:46;100542.31;;;27.70;52.13
9335;BME280;4706;41.844;26.082;2023-05-24T07:29:14;100537.47;;;27.71;51.94
9335;BME280;4706;41.844;26.082;2023-05-24T07:31:40;100536.84;;;27.94;53.03
9335;BME280;4706;41.844;26.082;2023-05-24T07:34:07;100532.63;;;28.09;52.17
9335;BME280;4706;41.844;26.082;2023-05-24T07:36:32;100534.44;;;28.26;51.92
9335;BME280;4706;41.844;26.082;2023-05-24T07:38:58;100538.94;;;28.20;51.06
9335;BME280;4706;41.844;26.082;2023-05-24T07:41:27;100533.91;;;28.35;51.95
9335;BME280;4706;41.844;26.082;2023-05-24T07:43:54;100539.72;;;28.59;50.41
9335;BME280;4706;41.844;26.082;2023-05-24T07:46:20;100536.72;;;28.69;50.14
9335;BME280;4706;41.844;26.082;2023-05-24T07:48:46;100532.47;;;28.54;50.23
9335;BME280;4706;41.844;26.082;2023-05-24T07:51:11;100532.03;;;28.59;51.84
9335;BME280;4706;41.844;26.082;2023-05-24T07:53:37;100531.50;;;28.68;52.05
9335;BME280;4706;41.844;26.082;2023-05-24T07:56:03;100535.84;;;28.45;52.36
9335;BME280;4706;41.844;26.082;2023-05-24T07:58:28;100532.53;;;28.16;51.80
9335;BME280;4706;41.844;26.082;2023-05-24T08:00:54;100534.97;;;27.80;53.48
9335;BME280;4706;41.844;26.082;2023-05-24T08:03:20;100530.78;;;27.54;53.86
9335;BME280;4706;41.844;26.082;2023-05-24T08:05:45;100531.00;;;27.29;54.43
9335;BME280;4706;41.844;26.082;2023-05-24T08:08:11;100526.75;;;27.51;55.22
9335;BME280;4706;41.844;26.082;2023-05-24T08:10:36;100531.00;;;27.70;53.14
9335;BME280;4706;41.844;26.082;2023-05-24T08:13:02;100530.78;;;27.54;53.64
9335;BME280;4706;41.844;26.082;2023-05-24T08:15:29;100528.03;;;27.43;53.67
9335;BME280;4706;41.844;26.082;2023-05-24T08:17:54;100527.38;;;27.28;55.20
9335;BME280;4706;41.844;26.082;2023-05-24T08:20:20;100510.13;;;27.16;54.74
9335;BME280;4706;41.844;26.082;2023-05-24T08:22:46;100513.38;;;27.07;55.89
9335;BME280;4706;41.844;26.082;2023-05-24T08:25:12;100515.13;;;26.90;54.71
9335;BME280;4706;41.844;26.082;2023-05-24T08:27:38;100509.59;;;27.31;52.71
9335;BME280;4706;41.844;26.082;2023-05-24T08:30:05;100507.25;;;27.64;53.67
9335;BME280;4706;41.844;26.082;2023-05-24T08:32:31;100521.13;;;28.23;51.63
9335;BME280;4706;41.844;26.082;2023-05-24T08:34:57;100517.38;;;28.64;50.89
9335;BME280;4706;41.844;26.082;2023-05-24T08:37:22;100512.66;;;29.12;49.67
9335;BME280;4706;41.844;26.082;2023-05-24T08:39:48;100513.44;;;29.36;48.52
9335;BME280;4706;41.844;26.082;2023-05-24T08:42:14;100514.94;;;29.20;48.64
9335;BME280;4706;41.844;26.082;2023-05-24T08:44:46;100518.44;;;29.04;48.17
9335;BME280;4706;41.844;26.082;2023-05-24T08:47:12;100514.69;;;29.11;47.70
9335;BME280;4706;41.844;26.082;2023-05-24T08:49:40;100514.28;;;29.56;47.16
9335;BME280;4706;41.844;26.082;2023-05-24T08:52:05;100517.06;;;30.03;46.79
9335;BME280;4706;41.844;26.082;2023-05-24T08:54:36;100514.03;;;30.34;43.88
9335;BME280;4706;41.844;26.082;2023-05-24T08:57:02;100502.41;;;30.28;44.06
9335;BME280;4706;41.844;26.082;2023-05-24T08:59:28;100521.13;;;30.42;44.77
9335;BME280;4706;41.844;26.082;2023-05-24T09:01:53;100524.19;;;30.51;44.38
9335;BME280;4706;41.844;26.082;2023-05-24T09:04:21;100519.09;;;30.62;44.93
9335;BME280;4706;41.844;26.082;2023-05-24T09:06:47;100515.38;;;30.45;43.06
9335;BME280;4706;41.844;26.082;2023-05-24T09:09:16;100528.22;;;30.14;45.30
9335;BME280;4706;41.844;26.082;2023-05-24T09:11:43;100521.84;;;29.66;46.23
9335;BME280;4706;41.844;26.082;2023-05-24T09:14:10;100519.50;;;29.38;46.24
9335;BME280;4706;41.844;26.082;2023-05-24T09:16:36;100518.50;;;29.01;46.44
9335;BME280;4706;41.844;26.082;2023-05-24T09:19:01;100518.19;;;28.65;47.52
9335;BME280;4706;41.844;26.082;2023-05-24T09:21:27;100534.31;;;28.68;49.94
9335;BME280;4706;41.844;26.082;2023-05-24T09:23:54;100514.56;;;28.91;49.19
9335;BME280;4706;41.844;26.082;2023-05-24T09:26:19;100522.47;;;29.03;45.07
9335;BME280;4706;41.844;26.082;2023-05-24T09:28:46;100492.16;;;28.73;45.31
9335;BME280;4706;41.844;26.082;2023-05-24T09:31:11;100525.19;;;28.84;42.60
9335;BME280;4706;41.844;26.082;2023-05-24T09:33:38;100525.78;;;28.71;43.58
9335;BME280;4706;41.844;26.082;2023-05-24T09:36:06;100514.16;;;28.62;44.40
9335;BME280;4706;41.844;26.082;2023-05-24T09:38:32;100514.81;;;28.46;44.25
9335;BME280;4706;41.844;26.082;2023-05-24T09:43:26;100531.69;;;29.11;42.00
9335;BME280;4706;41.844;26.082;2023-05-24T09:45:54;100520.66;;;29.40;40.57
9335;BME280;4706;41.844;26.082;2023-05-24T09:48:22;100516.53;;;29.68;40.08
9335;BME280;4706;41.844;26.082;2023-05-24T09:51:05;100508.69;;;29.06;39.72
9335;BME280;4706;41.844;26.082;2023-05-24T09:53:35;100530.16;;;28.76;40.93
9335;BME280;4706;41.844;26.082;2023-05-24T09:56:08;100516.97;;;28.93;41.78
9335;BME280;4706;41.844;26.082;2023-05-24T09:58:34;100514.75;;;29.31;42.17
9335;BME280;4706;41.844;26.082;2023-05-24T10:01:04;100516.81;;;29.74;41.63
9335;BME280;4706;41.844;26.082;2023-05-24T10:03:31;100509.59;;;30.13;40.51
9335;BME280;4706;41.844;26.082;2023-05-24T10:05:57;100515.72;;;30.67;38.72
9335;BME280;4706;41.844;26.082;2023-05-24T10:08:24;100515.91;;;30.77;37.86
9335;BME280;4706;41.844;26.082;2023-05-24T10:10:50;100509.13;;;30.54;38.15
9335;BME280;4706;41.844;26.082;2023-05-24T10:13:16;100513.75;;;30.28;38.45
9335;BME280;4706;41.844;26.082;2023-05-24T10:15:43;100501.97;;;30.30;37.97
9335;BME280;4706;41.844;26.082;2023-05-24T10:18:09;100501.34;;;30.58;36.97
9335;BME280;4706;41.844;26.082;2023-05-24T10:20:35;100502.22;;;30.55;38.87
9335;BME280;4706;41.844;26.082;2023-05-24T10:23:03;100488.97;;;30.85;37.14
9335;BME280;4706;41.844;26.082;2023-05-24T10:25:32;100507.31;;;30.04;37.94
9335;BME280;4706;41.844;26.082;2023-05-24T10:28:10;100497.69;;;29.11;40.42
9335;BME280;4706;41.844;26.082;2023-05-24T10:30:47;100505.81;;;28.82;41.39
9335;BME280;4706;41.844;26.082;2023-05-24T10:33:16;100512.22;;;28.59;42.24
9335;BME280;4706;41.844;26.082;2023-05-24T10:35:43;100499.50;;;28.44;42.53
9335;BME280;4706;41.844;26.082;2023-05-24T10:38:09;100503.34;;;28.84;39.66
9335;BME280;4706;41.844;26.082;2023-05-24T10:40:40;100513.41;;;29.16;39.69
9335;BME280;4706;41.844;26.082;2023-05-24T10:43:06;100491.16;;;29.38;38.33
9335;BME280;4706;41.844;26.082;2023-05-24T10:45:36;100497.56;;;29.65;38.03
9335;BME280;4706;41.844;26.082;2023-05-24T10:50:38;100488.81;;;30.56;37.62
9335;BME280;4706;41.844;26.082;2023-05-24T10:53:30;100490.06;;;30.71;37.05
9335;BME280;4706;41.844;26.082;2023-05-24T10:56:07;100479.72;;;31.13;35.11
9335;BME280;4706;41.844;26.082;2023-05-24T10:58:57;100460.63;;;31.47;34.84
9335;BME280;4706;41.844;26.082;2023-05-24T11:01:29;100472.91;;;32.02;34.58
9335;BME280;4706;41.844;26.082;2023-05-24T11:04:25;100478.13;;;32.45;32.74
9335;BME280;4706;41.844;26.082;2023-05-24T11:06:55;100475.94;;;32.24;32.14
9335;BME280;4706;41.844;26.082;2023-05-24T11:09:23;100475.75;;;31.73;32.14
9335;BME280;4706;41.844;26.082;2023-05-24T11:11:53;100487.22;;;31.07;33.75
9335;BME280;4706;41.844;26.082;2023-05-24T11:14:22;100474.16;;;30.77;34.24
9335;BME280;4706;41.844;26.082;2023-05-24T11:16:49;100476.81;;;31.01;35.35
9335;BME280;4706;41.844;26.082;2023-05-24T11:21:49;100476.03;;;30.64;35.85
9335;BME280;4706;41.844;26.082;2023-05-24T11:24:19;100466.72;;;30.47;36.28
9335;BME280;4706;41.844;26.082;2023-05-24T11:26:45;100478.31;;;30.36;37.02
9335;BME280;4706;41.844;26.082;2023-05-24T11:29:14;100473.22;;;30.64;34.64
9335;BME280;4706;41.844;26.082;2023-05-24T11:31:52;100475.34;;;30.60;35.62
9335;BME280;4706;41.844;26.082;2023-05-24T11:34:19;100464.91;;;31.06;33.76
9335;BME280;4706;41.844;26.082;2023-05-24T11:36:45;100454.72;;;31.08;34.33
9335;BME280;4706;41.844;26.082;2023-05-24T11:39:12;100460.75;;;30.78;34.30
9335;BME280;4706;41.844;26.082;2023-05-24T11:41:38;100457.75;;;30.48;34.74
9335;BME280;4706;41.844;26.082;2023-05-24T11:44:06;100457.66;;;30.52;34.60
9335;BME280;4706;41.844;26.082;2023-05-24T11:46:32;100453.53;;;30.20;35.52
9335;BME280;4706;41.844;26.082;2023-05-24T11:48:59;100458.31;;;29.40;38.43
9335;BME280;4706;41.844;26.082;2023-05-24T11:51:29;100454.69;;;28.93;39.62
9335;BME280;4706;41.844;26.082;2023-05-24T11:53:58;100457.97;;;28.37;41.98
9335;BME280;4706;41.844;26.082;2023-05-24T11:56:25;100456.28;;;28.09;42.60
9335;BME280;4706;41.844;26.082;2023-05-24T11:59:16;100455.81;;;27.83;42.91
9335;BME280;4706;41.844;26.082;2023-05-24T12:01:43;100447.00;;;28.08;42.31
9335;BME280;4706;41.844;26.082;2023-05-24T12:04:09;100442.47;;;28.15;41.82
9335;BME280;4706;41.844;26.082;2023-05-24T12:06:40;100431.72;;;28.33;41.60
9335;BME280;4706;41.844;26.082;2023-05-24T12:09:07;100449.97;;;28.59;39.51
9335;BME280;4706;41.844;26.082;2023-05-24T12:11:39;100429.63;;;28.41;39.66
9335;BME280;4706;41.844;26.082;2023-05-24T12:14:06;100436.06;;;28.41;40.44
9335;BME280;4706;41.844;26.082;2023-05-24T12:16:32;100441.78;;;28.65;39.74
9335;BME280;4706;41.844;26.082;2023-05-24T12:18:58;100432.41;;;28.44;40.84
9335;BME280;4706;41.844;26.082;2023-05-24T12:21:24;100434.66;;;28.26;42.09
9335;BME280;4706;41.844;26.082;2023-05-24T12:23:50;100432.84;;;28.08;41.06
9335;BME280;4706;41.844;26.082;2023-05-24T12:26:17;100439.88;;;27.97;41.85
9335;BME280;4706;41.844;26.082;2023-05-24T12:28:47;100434.03;;;27.80;42.99
9335;BME280;4706;41.844;26.082;2023-05-24T12:31:17;100438.53;;;27.74;43.67
9335;BME280;4706;41.844;26.082;2023-05-24T12:33:43;100434.06;;;27.77;44.07
9335;BME280;4706;41.844;26.082;2023-05-24T12:36:09;100435.75;;;27.67;43.99
9335;BME280;4706;41.844;26.082;2023-05-24T12:38:34;100430.06;;;27.74;44.48
9335;BME280;4706;41.844;26.082;2023-05-24T12:41:00;100431.97;;;27.47;45.00
9335;BME280;4706;41.844;26.082;2023-05-24T12:43:25;100424.06;;;27.31;45.93
9335;BME280;4706;41.844;26.082;2023-05-24T12:45:51;100431.84;;;27.20;44.41
9335;BME280;4706;41.844;26.082;2023-05-24T12:48:16;100423.22;;;27.34;45.30
9335;BME280;4706;41.844;26.082;2023-05-24T12:50:42;100421.22;;;27.69;44.77
9335;BME280;4706;41.844;26.082;2023-05-24T12:53:08;100415.84;;;27.81;44.90
9335;BME280;4706;41.844;26.082;2023-05-24T12:55:34;100433.81;;;27.98;44.23
9335;BME280;4706;41.844;26.082;2023-05-24T12:58:00;100433.34;;;28.03;46.16
9335;BME280;4706;41.844;26.082;2023-05-24T13:00:28;100425.84;;;27.90;49.61
9335;BME280;4706;41.844;26.082;2023-05-24T13:02:57;100437.91;;;27.56;54.78
9335;BME280;4706;41.844;26.082;2023-05-24T13:05:27;100453.19;;;27.24;55.19
9335;BME280;4706;41.844;26.082;2023-05-24T13:07:53;100458.22;;;26.95;58.33
9335;BME280;4706;41.844;26.082;2023-05-24T13:10:21;100453.13;;;26.79;56.01
9335;BME280;4706;41.844;26.082;2023-05-24T13:12:47;100463.44;;;26.48;59.56
9335;BME280;4706;41.844;26.082;2023-05-24T13:15:12;100453.44;;;26.29;60.97
9335;BME280;4706;41.844;26.082;2023-05-24T13:17:41;100449.09;;;26.10;65.36
9335;BME280;4706;41.844;26.082;2023-05-24T13:20:07;100444.28;;;26.07;64.58
9335;BME280;4706;41.844;26.082;2023-05-24T13:22:36;100448.75;;;25.98;64.65